sensor_id;sensor_type;location;lat;lon;timestamp;temperature;humidity
12309;DHT22;6217;48.150;17.142;2022-09-09T00:01:12;19.00;90.70
12309;DHT22;6217;48.150;17.142;2022-09-09T00:05:48;18.90;90.70
12309;DHT22;6217;48.150;17.142;2022-09-09T00:10:06;18.90;90.90
12309;DHT22;6217;48.150;17.142;2022-09-09T00:23:33;18.80;91.20
12309;DHT22;6217;48.150;17.142;2022-09-09T00:27:50;18.80;91.10
12309;DHT22;6217;48.150;17.142;2022-09-09T00:32:16;18.80;91.20
12309;DHT22;6217;48.150;17.142;2022-09-09T00:36:26;18.80;91.40
12309;DHT22;6217;48.150;17.142;2022-09-09T00:40:45;18.80;91.30
12309;DHT22;6217;48.150;17.142;2022-09-09T00:45:08;18.80;91.50
12309;DHT22;6217;48.150;17.142;2022-09-09T00:59:38;18.70;91.80
12309;DHT22;6217;48.150;17.142;2022-09-09T01:03:55;18.60;92.00
12309;DHT22;6217;48.150;17.142;2022-09-09T01:08:22;18.60;91.90
12309;DHT22;6217;48.150;17.142;2022-09-09T01:12:42;18.70;91.80
12309;DHT22;6217;48.150;17.142;2022-09-09T01:16:56;18.80;91.80
12309;DHT22;6217;48.150;17.142;2022-09-09T01:29:57;18.80;91.40
12309;DHT22;6217;48.150;17.142;2022-09-09T01:34:14;18.80;91.40
12309;DHT22;6217;48.150;17.142;2022-09-09T01:38:23;18.80;91.30
12309;DHT22;6217;48.150;17.142;2022-09-09T01:42:32;18.80;91.40
12309;DHT22;6217;48.150;17.142;2022-09-09T01:46:39;18.80;91.40
12309;DHT22;6217;48.150;17.142;2022-09-09T01:50:51;18.80;91.40
12309;DHT22;6217;48.150;17.142;2022-09-09T01:54:58;18.80;91.40
12309;DHT22;6217;48.150;17.142;2022-09-09T02:03:57;18.70;91.50
12309;DHT22;6217;48.150;17.142;2022-09-09T02:08:14;18.70;91.60
12309;DHT22;6217;48.150;17.142;2022-09-09T02:12:30;18.70;91.60
12309;DHT22;6217;48.150;17.142;2022-09-09T02:16:44;18.60;91.70
12309;DHT22;6217;48.150;17.142;2022-09-09T02:20:56;18.60;91.80
12309;DHT22;6217;48.150;17.142;2022-09-09T02:25:04;18.50;91.90
12309;DHT22;6217;48.150;17.142;2022-09-09T02:29:19;18.50;91.90
12309;DHT22;6217;48.150;17.142;2022-09-09T02:33:33;18.50;92.10
12309;DHT22;6217;48.150;17.142;2022-09-09T02:37:42;18.50;92.20
12309;DHT22;6217;48.150;17.142;2022-09-09T02:41:52;18.30;92.30
12309;DHT22;6217;48.150;17.142;2022-09-09T02:51:08;18.30;92.60
12309;DHT22;6217;48.150;17.142;2022-09-09T02:55:29;18.40;92.50
12309;DHT22;6217;48.150;17.142;2022-09-09T02:59:49;18.40;92.60
12309;DHT22;6217;48.150;17.142;2022-09-09T03:03:55;18.30;92.60
12309;DHT22;6217;48.150;17.142;2022-09-09T03:08:04;18.30;92.60
12309;DHT22;6217;48.150;17.142;2022-09-09T03:12:11;18.30;92.70
12309;DHT22;6217;48.150;17.142;2022-09-09T03:16:19;18.20;92.80
12309;DHT22;6217;48.150;17.142;2022-09-09T03:20:29;18.20;93.00
12309;DHT22;6217;48.150;17.142;2022-09-09T03:24:37;18.20;93.10
12309;DHT22;6217;48.150;17.142;2022-09-09T03:28:44;18.20;93.10
12309;DHT22;6217;48.150;17.142;2022-09-09T03:32:53;18.20;93.20
12309;DHT22;6217;48.150;17.142;2022-09-09T03:37:01;18.10;93.20
12309;DHT22;6217;48.150;17.142;2022-09-09T03:41:08;18.10;93.40
12309;DHT22;6217;48.150;17.142;2022-09-09T03:45:15;18.10;93.50
12309;DHT22;6217;48.150;17.142;2022-09-09T03:49:22;18.10;93.50
12309;DHT22;6217;48.150;17.142;2022-09-09T03:53:29;18.20;93.40
12309;DHT22;6217;48.150;17.142;2022-09-09T03:57:36;18.30;93.40
12309;DHT22;6217;48.150;17.142;2022-09-09T04:01:45;18.30;93.40
12309;DHT22;6217;48.150;17.142;2022-09-09T04:05:53;18.40;93.30
12309;DHT22;6217;48.150;17.142;2022-09-09T04:10:02;18.40;93.20
12309;DHT22;6217;48.150;17.142;2022-09-09T04:14:10;18.40;93.20
12309;DHT22;6217;48.150;17.142;2022-09-09T04:18:16;18.40;93.30
12309;DHT22;6217;48.150;17.142;2022-09-09T04:22:23;18.40;93.40
12309;DHT22;6217;48.150;17.142;2022-09-09T04:26:29;18.50;93.40
12309;DHT22;6217;48.150;17.142;2022-09-09T04:30:35;18.50;93.40
12309;DHT22;6217;48.150;17.142;2022-09-09T04:34:41;18.40;93.40
12309;DHT22;6217;48.150;17.142;2022-09-09T04:38:49;18.40;93.60
12309;DHT22;6217;48.150;17.142;2022-09-09T04:43:02;18.50;93.60
12309;DHT22;6217;48.150;17.142;2022-09-09T04:47:12;18.40;93.70
12309;DHT22;6217;48.150;17.142;2022-09-09T04:51:19;18.40;93.80
12309;DHT22;6217;48.150;17.142;2022-09-09T04:55:28;18.50;93.80
12309;DHT22;6217;48.150;17.142;2022-09-09T04:59:34;18.60;93.60
12309;DHT22;6217;48.150;17.142;2022-09-09T05:03:43;18.60;93.70
12309;DHT22;6217;48.150;17.142;2022-09-09T05:07:52;18.70;93.60
12309;DHT22;6217;48.150;17.142;2022-09-09T05:11:59;18.70;93.70
12309;DHT22;6217;48.150;17.142;2022-09-09T05:16:16;18.80;93.60
12309;DHT22;6217;48.150;17.142;2022-09-09T05:20:24;18.80;93.60
12309;DHT22;6217;48.150;17.142;2022-09-09T05:24:30;19.00;93.50
12309;DHT22;6217;48.150;17.142;2022-09-09T05:28:39;19.20;93.30
12309;DHT22;6217;48.150;17.142;2022-09-09T05:32:46;19.60;93.40
12309;DHT22;6217;48.150;17.142;2022-09-09T05:36:54;20.60;91.80
12309;DHT22;6217;48.150;17.142;2022-09-09T05:41:02;20.90;91.00
12309;DHT22;6217;48.150;17.142;2022-09-09T05:45:10;23.00;88.60
12309;DHT22;6217;48.150;17.142;2022-09-09T05:49:17;26.30;80.60
12309;DHT22;6217;48.150;17.142;2022-09-09T05:57:32;34.90;54.20
12309;DHT22;6217;48.150;17.142;2022-09-09T06:01:38;37.50;48.30
12309;DHT22;6217;48.150;17.142;2022-09-09T06:05:46;39.20;44.80
12309;DHT22;6217;48.150;17.142;2022-09-09T06:09:52;41.00;41.70
12309;DHT22;6217;48.150;17.142;2022-09-09T06:13:59;41.00;39.70
12309;DHT22;6217;48.150;17.142;2022-09-09T06:18:06;36.30;43.40
12309;DHT22;6217;48.150;17.142;2022-09-09T06:22:12;34.20;47.20
12309;DHT22;6217;48.150;17.142;2022-09-09T06:26:20;31.00;51.30
12309;DHT22;6217;48.150;17.142;2022-09-09T06:30:29;29.40;55.10
12309;DHT22;6217;48.150;17.142;2022-09-09T06:34:36;27.90;57.40
12309;DHT22;6217;48.150;17.142;2022-09-09T06:38:42;27.20;59.00
12309;DHT22;6217;48.150;17.142;2022-09-09T06:42:50;27.80;57.90
12309;DHT22;6217;48.150;17.142;2022-09-09T06:47:12;29.30;56.50
12309;DHT22;6217;48.150;17.142;2022-09-09T06:51:21;30.10;51.90
12309;DHT22;6217;48.150;17.142;2022-09-09T06:55:28;29.60;52.80
12309;DHT22;6217;48.150;17.142;2022-09-09T06:59:35;29.40;51.50
12309;DHT22;6217;48.150;17.142;2022-09-09T07:03:46;27.50;54.60
12309;DHT22;6217;48.150;17.142;2022-09-09T07:07:54;26.10;58.30
12309;DHT22;6217;48.150;17.142;2022-09-09T07:12:01;25.60;60.50
12309;DHT22;6217;48.150;17.142;2022-09-09T07:16:13;25.50;60.90
12309;DHT22;6217;48.150;17.142;2022-09-09T07:20:20;25.30;61.50
12309;DHT22;6217;48.150;17.142;2022-09-09T07:24:27;25.10;62.20
12309;DHT22;6217;48.150;17.142;2022-09-09T07:28:36;25.10;62.80
12309;DHT22;6217;48.150;17.142;2022-09-09T07:32:43;25.10;61.70
12309;DHT22;6217;48.150;17.142;2022-09-09T07:36:49;25.40;60.80
12309;DHT22;6217;48.150;17.142;2022-09-09T07:41:06;25.50;60.10
12309;DHT22;6217;48.150;17.142;2022-09-09T07:45:17;25.50;59.80
12309;DHT22;6217;48.150;17.142;2022-09-09T07:49:24;25.40;60.10
12309;DHT22;6217;48.150;17.142;2022-09-09T07:53:30;25.30;60.10
12309;DHT22;6217;48.150;17.142;2022-09-09T07:57:37;25.30;59.90
12309;DHT22;6217;48.150;17.142;2022-09-09T08:01:46;25.30;59.90
12309;DHT22;6217;48.150;17.142;2022-09-09T08:06:01;25.30;59.50
12309;DHT22;6217;48.150;17.142;2022-09-09T08:10:08;25.30;59.00
12309;DHT22;6217;48.150;17.142;2022-09-09T08:14:16;25.30;58.60
12309;DHT22;6217;48.150;17.142;2022-09-09T08:18:26;25.20;58.10
12309;DHT22;6217;48.150;17.142;2022-09-09T08:22:34;25.20;57.80
12309;DHT22;6217;48.150;17.142;2022-09-09T08:26:45;25.10;58.10
12309;DHT22;6217;48.150;17.142;2022-09-09T08:30:55;25.10;58.30
12309;DHT22;6217;48.150;17.142;2022-09-09T08:35:01;25.30;57.80
12309;DHT22;6217;48.150;17.142;2022-09-09T08:39:10;26.70;56.70
12309;DHT22;6217;48.150;17.142;2022-09-09T08:43:21;27.00;54.30
12309;DHT22;6217;48.150;17.142;2022-09-09T08:52:25;26.80;53.20
12309;DHT22;6217;48.150;17.142;2022-09-09T08:56:37;26.80;53.80
12309;DHT22;6217;48.150;17.142;2022-09-09T09:01:11;26.70;53.80
12309;DHT22;6217;48.150;17.142;2022-09-09T09:05:36;26.90;52.60
12309;DHT22;6217;48.150;17.142;2022-09-09T09:10:12;27.00;52.60
12309;DHT22;6217;48.150;17.142;2022-09-09T09:14:42;27.20;52.00
12309;DHT22;6217;48.150;17.142;2022-09-09T09:18:49;27.30;52.30
12309;DHT22;6217;48.150;17.142;2022-09-09T09:23:00;27.30;52.30
12309;DHT22;6217;48.150;17.142;2022-09-09T09:27:18;27.40;51.80
12309;DHT22;6217;48.150;17.142;2022-09-09T09:31:37;27.20;51.60
12309;DHT22;6217;48.150;17.142;2022-09-09T09:35:43;27.00;51.70
12309;DHT22;6217;48.150;17.142;2022-09-09T09:39:50;27.10;51.80
12309;DHT22;6217;48.150;17.142;2022-09-09T09:43:57;27.20;51.10
12309;DHT22;6217;48.150;17.142;2022-09-09T09:48:06;27.10;51.20
12309;DHT22;6217;48.150;17.142;2022-09-09T09:52:22;27.10;51.10
12309;DHT22;6217;48.150;17.142;2022-09-09T09:56:30;27.00;50.80
12309;DHT22;6217;48.150;17.142;2022-09-09T10:00:50;27.10;51.00
12309;DHT22;6217;48.150;17.142;2022-09-09T10:05:25;27.20;50.90
12309;DHT22;6217;48.150;17.142;2022-09-09T10:09:33;27.20;51.00
12309;DHT22;6217;48.150;17.142;2022-09-09T10:23:02;26.70;50.60
12309;DHT22;6217;48.150;17.142;2022-09-09T10:27:56;26.80;50.90
12309;DHT22;6217;48.150;17.142;2022-09-09T10:36:53;27.30;49.40
12309;DHT22;6217;48.150;17.142;2022-09-09T10:45:52;27.40;48.70
12309;DHT22;6217;48.150;17.142;2022-09-09T10:55:02;27.80;48.90
12309;DHT22;6217;48.150;17.142;2022-09-09T10:59:24;27.80;48.40
12309;DHT22;6217;48.150;17.142;2022-09-09T11:03:36;27.80;48.10
12309;DHT22;6217;48.150;17.142;2022-09-09T11:07:55;27.80;48.00
12309;DHT22;6217;48.150;17.142;2022-09-09T11:12:18;27.40;48.00
12309;DHT22;6217;48.150;17.142;2022-09-09T11:16:39;27.20;48.20
12309;DHT22;6217;48.150;17.142;2022-09-09T11:20:51;27.40;48.00
12309;DHT22;6217;48.150;17.142;2022-09-09T11:25:08;27.90;47.60
12309;DHT22;6217;48.150;17.142;2022-09-09T11:34:30;28.10;45.90
12309;DHT22;6217;48.150;17.142;2022-09-09T11:38:47;28.00;45.40
12309;DHT22;6217;48.150;17.142;2022-09-09T11:43:12;27.90;45.80
12309;DHT22;6217;48.150;17.142;2022-09-09T11:47:24;27.80;45.60
12309;DHT22;6217;48.150;17.142;2022-09-09T11:51:35;28.00;45.30
12309;DHT22;6217;48.150;17.142;2022-09-09T11:55:41;28.10;44.90
12309;DHT22;6217;48.150;17.142;2022-09-09T11:59:51;28.10;44.40
12309;DHT22;6217;48.150;17.142;2022-09-09T12:08:30;28.30;41.80
12309;DHT22;6217;48.150;17.142;2022-09-09T12:12:38;28.50;42.30
12309;DHT22;6217;48.150;17.142;2022-09-09T12:16:44;28.60;41.80
12309;DHT22;6217;48.150;17.142;2022-09-09T12:21:06;28.80;41.30
12309;DHT22;6217;48.150;17.142;2022-09-09T12:38:43;28.30;40.20
12309;DHT22;6217;48.150;17.142;2022-09-09T12:42:50;28.00;40.90
12309;DHT22;6217;48.150;17.142;2022-09-09T12:47:00;27.80;41.20
12309;DHT22;6217;48.150;17.142;2022-09-09T12:51:19;27.80;41.20
12309;DHT22;6217;48.150;17.142;2022-09-09T12:55:32;27.90;40.60
12309;DHT22;6217;48.150;17.142;2022-09-09T12:59:43;28.00;40.60
12309;DHT22;6217;48.150;17.142;2022-09-09T13:03:53;28.20;40.20
12309;DHT22;6217;48.150;17.142;2022-09-09T13:08:06;28.30;40.00
12309;DHT22;6217;48.150;17.142;2022-09-09T13:12:21;28.40;39.20
12309;DHT22;6217;48.150;17.142;2022-09-09T13:16:33;28.20;38.70
12309;DHT22;6217;48.150;17.142;2022-09-09T13:20:46;28.10;38.80
12309;DHT22;6217;48.150;17.142;2022-09-09T13:25:21;28.10;38.90
12309;DHT22;6217;48.150;17.142;2022-09-09T13:29:32;28.00;38.50
12309;DHT22;6217;48.150;17.142;2022-09-09T13:33:39;27.80;38.60
12309;DHT22;6217;48.150;17.142;2022-09-09T13:37:45;27.60;38.50
12309;DHT22;6217;48.150;17.142;2022-09-09T13:41:52;27.60;38.50
12309;DHT22;6217;48.150;17.142;2022-09-09T13:46:04;27.60;38.50
12309;DHT22;6217;48.150;17.142;2022-09-09T13:50:27;27.60;38.60
12309;DHT22;6217;48.150;17.142;2022-09-09T13:54:34;27.80;38.40
12309;DHT22;6217;48.150;17.142;2022-09-09T13:58:41;27.90;38.60
12309;DHT22;6217;48.150;17.142;2022-09-09T14:02:48;27.80;38.50
12309;DHT22;6217;48.150;17.142;2022-09-09T14:06:55;27.70;38.70
12309;DHT22;6217;48.150;17.142;2022-09-09T14:11:01;27.50;38.70
12309;DHT22;6217;48.150;17.142;2022-09-09T14:15:09;27.50;39.20
12309;DHT22;6217;48.150;17.142;2022-09-09T14:19:16;27.50;39.00
12309;DHT22;6217;48.150;17.142;2022-09-09T14:23:22;27.50;39.00
12309;DHT22;6217;48.150;17.142;2022-09-09T14:27:29;27.60;38.80
12309;DHT22;6217;48.150;17.142;2022-09-09T14:31:36;27.40;38.60
12309;DHT22;6217;48.150;17.142;2022-09-09T14:35:42;27.40;38.90
12309;DHT22;6217;48.150;17.142;2022-09-09T14:39:50;27.20;38.80
12309;DHT22;6217;48.150;17.142;2022-09-09T14:43:56;27.00;39.20
12309;DHT22;6217;48.150;17.142;2022-09-09T14:48:03;26.90;39.20
12309;DHT22;6217;48.150;17.142;2022-09-09T14:52:09;26.80;39.30
12309;DHT22;6217;48.150;17.142;2022-09-09T14:56:18;26.70;39.20
12309;DHT22;6217;48.150;17.142;2022-09-09T15:00:25;26.60;39.40
12309;DHT22;6217;48.150;17.142;2022-09-09T15:04:32;26.50;40.00
12309;DHT22;6217;48.150;17.142;2022-09-09T15:08:43;26.50;40.70
12309;DHT22;6217;48.150;17.142;2022-09-09T15:12:50;26.30;41.10
12309;DHT22;6217;48.150;17.142;2022-09-09T15:16:56;26.10;42.20
12309;DHT22;6217;48.150;17.142;2022-09-09T15:21:05;25.90;42.00
12309;DHT22;6217;48.150;17.142;2022-09-09T15:25:11;25.90;42.30
12309;DHT22;6217;48.150;17.142;2022-09-09T15:29:18;25.90;42.60
12309;DHT22;6217;48.150;17.142;2022-09-09T15:33:24;25.90;42.60
12309;DHT22;6217;48.150;17.142;2022-09-09T15:37:30;25.70;42.90
12309;DHT22;6217;48.150;17.142;2022-09-09T15:41:36;25.70;43.60
12309;DHT22;6217;48.150;17.142;2022-09-09T15:45:45;25.70;44.10
12309;DHT22;6217;48.150;17.142;2022-09-09T15:49:52;25.80;44.40
12309;DHT22;6217;48.150;17.142;2022-09-09T15:53:59;25.90;44.70
12309;DHT22;6217;48.150;17.142;2022-09-09T15:58:05;25.90;45.10
12309;DHT22;6217;48.150;17.142;2022-09-09T16:02:11;25.80;45.60
12309;DHT22;6217;48.150;17.142;2022-09-09T16:06:21;25.60;46.00
12309;DHT22;6217;48.150;17.142;2022-09-09T16:10:28;25.60;46.40
12309;DHT22;6217;48.150;17.142;2022-09-09T16:14:34;25.50;46.70
12309;DHT22;6217;48.150;17.142;2022-09-09T16:18:46;25.50;47.20
12309;DHT22;6217;48.150;17.142;2022-09-09T16:22:53;25.40;47.70
12309;DHT22;6217;48.150;17.142;2022-09-09T16:26:59;25.30;47.80
12309;DHT22;6217;48.150;17.142;2022-09-09T16:31:10;25.30;48.10
12309;DHT22;6217;48.150;17.142;2022-09-09T16:35:20;25.20;48.40
12309;DHT22;6217;48.150;17.142;2022-09-09T16:39:27;25.10;48.50
12309;DHT22;6217;48.150;17.142;2022-09-09T16:43:34;25.10;48.80
12309;DHT22;6217;48.150;17.142;2022-09-09T16:47:41;24.90;49.10
12309;DHT22;6217;48.150;17.142;2022-09-09T16:51:49;24.80;49.20
12309;DHT22;6217;48.150;17.142;2022-09-09T16:56:05;24.80;49.40
12309;DHT22;6217;48.150;17.142;2022-09-09T17:00:12;24.70;49.40
12309;DHT22;6217;48.150;17.142;2022-09-09T17:04:20;24.60;49.50
12309;DHT22;6217;48.150;17.142;2022-09-09T17:08:30;24.50;49.70
12309;DHT22;6217;48.150;17.142;2022-09-09T17:12:36;24.40;50.00
12309;DHT22;6217;48.150;17.142;2022-09-09T17:16:43;24.20;50.30
12309;DHT22;6217;48.150;17.142;2022-09-09T17:20:49;24.20;50.70
12309;DHT22;6217;48.150;17.142;2022-09-09T17:24:56;24.20;51.00
12309;DHT22;6217;48.150;17.142;2022-09-09T17:29:02;24.10;51.20
12309;DHT22;6217;48.150;17.142;2022-09-09T17:33:09;24.10;51.70
12309;DHT22;6217;48.150;17.142;2022-09-09T17:37:15;24.00;52.20
12309;DHT22;6217;48.150;17.142;2022-09-09T17:41:24;23.90;52.80
12309;DHT22;6217;48.150;17.142;2022-09-09T17:45:33;23.80;53.30
12309;DHT22;6217;48.150;17.142;2022-09-09T17:49:39;23.80;53.70
12309;DHT22;6217;48.150;17.142;2022-09-09T17:53:49;23.80;54.00
12309;DHT22;6217;48.150;17.142;2022-09-09T17:57:55;23.80;54.60
12309;DHT22;6217;48.150;17.142;2022-09-09T18:02:01;23.70;54.80
12309;DHT22;6217;48.150;17.142;2022-09-09T18:06:12;23.70;55.10
12309;DHT22;6217;48.150;17.142;2022-09-09T18:10:20;23.70;55.30
12309;DHT22;6217;48.150;17.142;2022-09-09T18:14:29;23.60;55.10
12309;DHT22;6217;48.150;17.142;2022-09-09T18:18:36;23.60;55.00
12309;DHT22;6217;48.150;17.142;2022-09-09T18:22:42;23.60;55.50
12309;DHT22;6217;48.150;17.142;2022-09-09T18:26:49;23.50;55.90
12309;DHT22;6217;48.150;17.142;2022-09-09T18:30:56;23.40;56.10
12309;DHT22;6217;48.150;17.142;2022-09-09T18:35:02;23.40;56.20
12309;DHT22;6217;48.150;17.142;2022-09-09T18:39:10;23.40;56.30
12309;DHT22;6217;48.150;17.142;2022-09-09T18:43:18;23.40;56.40
12309;DHT22;6217;48.150;17.142;2022-09-09T18:47:24;23.30;56.70
12309;DHT22;6217;48.150;17.142;2022-09-09T18:51:31;23.20;57.00
12309;DHT22;6217;48.150;17.142;2022-09-09T18:55:38;23.20;57.30
12309;DHT22;6217;48.150;17.142;2022-09-09T18:59:44;23.10;58.20
12309;DHT22;6217;48.150;17.142;2022-09-09T19:03:51;22.90;59.70
12309;DHT22;6217;48.150;17.142;2022-09-09T19:07:57;22.70;61.10
12309;DHT22;6217;48.150;17.142;2022-09-09T19:12:03;22.60;62.40
12309;DHT22;6217;48.150;17.142;2022-09-09T19:16:13;22.50;63.50
12309;DHT22;6217;48.150;17.142;2022-09-09T19:20:20;22.40;64.60
12309;DHT22;6217;48.150;17.142;2022-09-09T19:24:29;22.30;65.20
12309;DHT22;6217;48.150;17.142;2022-09-09T19:28:37;22.20;66.10
12309;DHT22;6217;48.150;17.142;2022-09-09T19:32:44;22.20;66.50
12309;DHT22;6217;48.150;17.142;2022-09-09T19:36:51;22.00;67.30
12309;DHT22;6217;48.150;17.142;2022-09-09T19:41:09;21.90;68.10
12309;DHT22;6217;48.150;17.142;2022-09-09T19:45:16;21.80;69.40
12309;DHT22;6217;48.150;17.142;2022-09-09T19:49:22;21.70;69.70
12309;DHT22;6217;48.150;17.142;2022-09-09T19:53:31;21.70;70.00
12309;DHT22;6217;48.150;17.142;2022-09-09T19:57:37;21.70;70.40
12309;DHT22;6217;48.150;17.142;2022-09-09T20:01:44;21.70;70.60
12309;DHT22;6217;48.150;17.142;2022-09-09T20:05:50;21.70;70.80
12309;DHT22;6217;48.150;17.142;2022-09-09T20:09:58;21.60;71.30
12309;DHT22;6217;48.150;17.142;2022-09-09T20:14:04;21.60;71.80
12309;DHT22;6217;48.150;17.142;2022-09-09T20:18:11;21.60;72.10
12309;DHT22;6217;48.150;17.142;2022-09-09T20:22:18;21.50;72.80
12309;DHT22;6217;48.150;17.142;2022-09-09T20:26:25;21.50;73.10
12309;DHT22;6217;48.150;17.142;2022-09-09T20:30:33;21.50;73.30
12309;DHT22;6217;48.150;17.142;2022-09-09T20:34:43;21.50;73.50
12309;DHT22;6217;48.150;17.142;2022-09-09T20:39:08;21.40;73.80
12309;DHT22;6217;48.150;17.142;2022-09-09T20:43:19;21.30;74.30
12309;DHT22;6217;48.150;17.142;2022-09-09T20:47:25;21.30;74.10
12309;DHT22;6217;48.150;17.142;2022-09-09T20:51:33;21.30;74.10
12309;DHT22;6217;48.150;17.142;2022-09-09T20:55:40;21.20;74.20
12309;DHT22;6217;48.150;17.142;2022-09-09T20:59:46;21.20;74.50
12309;DHT22;6217;48.150;17.142;2022-09-09T21:03:55;21.20;75.00
12309;DHT22;6217;48.150;17.142;2022-09-09T21:08:02;21.10;75.50
12309;DHT22;6217;48.150;17.142;2022-09-09T21:12:08;21.10;76.00
12309;DHT22;6217;48.150;17.142;2022-09-09T21:16:17;21.10;76.70
12309;DHT22;6217;48.150;17.142;2022-09-09T21:20:26;21.10;77.30
12309;DHT22;6217;48.150;17.142;2022-09-09T21:24:32;21.00;77.30
12309;DHT22;6217;48.150;17.142;2022-09-09T21:28:38;20.90;76.90
12309;DHT22;6217;48.150;17.142;2022-09-09T21:32:44;20.90;77.30
12309;DHT22;6217;48.150;17.142;2022-09-09T21:36:50;20.90;77.80
12309;DHT22;6217;48.150;17.142;2022-09-09T21:41:04;20.90;78.20
12309;DHT22;6217;48.150;17.142;2022-09-09T21:45:12;20.80;79.40
12309;DHT22;6217;48.150;17.142;2022-09-09T21:49:19;20.70;79.90
12309;DHT22;6217;48.150;17.142;2022-09-09T21:53:25;20.60;81.30
12309;DHT22;6217;48.150;17.142;2022-09-09T21:57:31;20.50;82.00
12309;DHT22;6217;48.150;17.142;2022-09-09T22:01:39;20.50;82.60
12309;DHT22;6217;48.150;17.142;2022-09-09T22:06:03;20.50;82.90
12309;DHT22;6217;48.150;17.142;2022-09-09T22:10:14;20.40;83.20
12309;DHT22;6217;48.150;17.142;2022-09-09T22:14:21;20.40;83.40
12309;DHT22;6217;48.150;17.142;2022-09-09T22:18:27;20.30;84.10
12309;DHT22;6217;48.150;17.142;2022-09-09T22:22:37;20.20;84.90
12309;DHT22;6217;48.150;17.142;2022-09-09T22:26:43;20.10;85.50
12309;DHT22;6217;48.150;17.142;2022-09-09T22:30:50;20.00;86.20
12309;DHT22;6217;48.150;17.142;2022-09-09T22:34:56;19.90;86.90
12309;DHT22;6217;48.150;17.142;2022-09-09T22:39:03;19.90;87.20
12309;DHT22;6217;48.150;17.142;2022-09-09T22:43:14;19.90;87.20
12309;DHT22;6217;48.150;17.142;2022-09-09T22:47:24;19.80;87.40
12309;DHT22;6217;48.150;17.142;2022-09-09T22:51:31;19.80;87.40
12309;DHT22;6217;48.150;17.142;2022-09-09T22:55:40;19.70;87.70
12309;DHT22;6217;48.150;17.142;2022-09-09T22:59:46;19.70;87.80
12309;DHT22;6217;48.150;17.142;2022-09-09T23:03:54;19.70;88.10
12309;DHT22;6217;48.150;17.142;2022-09-09T23:08:03;19.70;88.50
12309;DHT22;6217;48.150;17.142;2022-09-09T23:12:10;19.70;88.40
12309;DHT22;6217;48.150;17.142;2022-09-09T23:16:22;19.70;88.50
12309;DHT22;6217;48.150;17.142;2022-09-09T23:20:30;19.60;88.80
12309;DHT22;6217;48.150;17.142;2022-09-09T23:24:36;19.60;89.00
12309;DHT22;6217;48.150;17.142;2022-09-09T23:28:43;19.60;89.10
12309;DHT22;6217;48.150;17.142;2022-09-09T23:32:49;19.60;89.30
12309;DHT22;6217;48.150;17.142;2022-09-09T23:36:55;19.50;90.10
12309;DHT22;6217;48.150;17.142;2022-09-09T23:41:03;19.50;89.90
12309;DHT22;6217;48.150;17.142;2022-09-09T23:45:11;19.50;90.00
12309;DHT22;6217;48.150;17.142;2022-09-09T23:49:17;19.50;90.10
12309;DHT22;6217;48.150;17.142;2022-09-09T23:53:24;19.50;90.20
12309;DHT22;6217;48.150;17.142;2022-09-09T23:57:31;19.50;90.10
